Time;durP1;ratioP1;P1;durP2;ratioP2;P2;SDS_P1;SDS_P2;PMS_P1;PMS_P2;Temp;Humidity;BMP_temperature;BMP_pressure;BME280_temperature;BME280_humidity;BME280_pressure;Samples;Min_cycle;Max_cycle;Signal;HPM_P1;HPM_P2
2023/01/20 00:02:12;;;;;;;2.60;1.90;;;20.90;30.00;;;;;;5035381;28;20039;-51
2023/01/20 00:04:38;;;;;;;2.58;1.88;;;20.90;30.00;;;;;;5026331;28;20030;-55
2023/01/20 00:07:04;;;;;;;2.65;1.88;;;20.90;30.00;;;;;;5035394;28;20492;-50
2023/01/20 00:09:30;;;;;;;2.63;2.00;;;20.80;30.00;;;;;;5036856;28;20325;-53
2023/01/20 00:11:55;;;;;;;2.33;1.75;;;20.90;30.00;;;;;;5034755;28;20045;-54
2023/01/20 00:14:23;;;;;;;3.67;1.55;;;20.90;30.00;;;;;;5035005;28;20025;-55
2023/01/20 00:16:49;;;;;;;2.05;1.80;;;20.80;30.00;;;;;;5034173;28;20033;-55
2023/01/20 00:19:15;;;;;;;2.03;1.83;;;20.80;30.00;;;;;;5035699;28;20057;-53
2023/01/20 00:21:42;;;;;;;2.33;1.85;;;20.80;30.00;;;;;;5036063;28;20133;-52
2023/01/20 00:24:08;;;;;;;2.42;1.90;;;20.80;30.00;;;;;;5035470;28;20033;-55
2023/01/20 00:26:34;;;;;;;3.15;2.17;;;20.80;30.00;;;;;;5034707;28;20032;-56
2023/01/20 00:28:59;;;;;;;2.72;2.08;;;20.80;30.00;;;;;;5035303;28;20444;-53
2023/01/20 00:31:28;;;;;;;2.88;2.58;;;20.70;30.00;;;;;;5027236;28;20033;-55
2023/01/20 00:33:55;;;;;;;3.03;2.40;;;20.80;30.00;;;;;;5035736;28;20033;-52
2023/01/20 00:36:23;;;;;;;3.08;2.60;;;20.80;30.00;;;;;;5031652;28;20460;-57
2023/01/20 00:38:49;;;;;;;3.25;2.67;;;20.80;30.00;;;;;;5035413;28;20021;-53
2023/01/20 00:41:16;;;;;;;3.78;2.88;;;20.70;30.00;;;;;;5033445;28;20028;-55
2023/01/20 00:43:42;;;;;;;3.75;2.67;;;20.70;30.00;;;;;;5034438;28;20119;-55
2023/01/20 00:46:08;;;;;;;4.00;3.05;;;20.70;30.00;;;;;;5034525;28;20147;-55
2023/01/20 00:48:35;;;;;;;3.92;3.13;;;20.70;30.00;;;;;;5027696;28;20060;-53
2023/01/20 00:51:01;;;;;;;4.43;3.58;;;20.70;30.00;;;;;;5035142;28;20029;-55
2023/01/20 00:53:27;;;;;;;3.75;3.05;;;20.70;30.60;;;;;;5033933;28;20057;-55
2023/01/20 00:55:53;;;;;;;4.30;3.50;;;20.70;30.00;;;;;;5035076;28;20445;-55
2023/01/20 00:58:19;;;;;;;5.20;3.78;;;20.60;30.00;;;;;;5034425;28;20068;-55
2023/01/20 01:00:49;;;;;;;4.22;3.55;;;20.70;30.10;;;;;;5034613;28;20079;-52
2023/01/20 01:03:15;;;;;;;4.55;3.80;;;20.60;30.10;;;;;;5034572;28;20337;-49
2023/01/20 01:05:42;;;;;;;4.20;3.50;;;20.60;30.10;;;;;;5034768;28;20208;-53
2023/01/20 01:08:08;;;;;;;4.03;3.45;;;20.60;30.10;;;;;;5035263;28;20021;-51
2023/01/20 01:10:34;;;;;;;5.50;3.63;;;20.60;30.10;;;;;;5034971;28;20040;-54
2023/01/20 01:13:01;;;;;;;4.97;3.90;;;20.60;30.10;;;;;;5030319;28;20067;-50
2023/01/20 01:15:27;;;;;;;5.22;4.07;;;20.60;30.10;;;;;;5023888;28;20063;-52
2023/01/20 01:17:55;;;;;;;5.07;3.92;;;20.60;30.10;;;;;;5033386;28;20029;-56
2023/01/20 01:20:21;;;;;;;5.63;4.43;;;20.50;30.00;;;;;;5032382;28;20052;-55
2023/01/20 01:22:47;;;;;;;5.07;4.28;;;20.60;30.10;;;;;;5033842;28;20025;-55
2023/01/20 01:25:13;;;;;;;5.03;3.90;;;20.50;30.00;;;;;;5034496;28;20037;-55
2023/01/20 01:27:39;;;;;;;6.03;4.35;;;20.50;30.00;;;;;;5033647;28;20029;-54
2023/01/20 01:30:05;;;;;;;4.78;4.28;;;20.50;30.00;;;;;;5034383;28;20327;-54
2023/01/20 01:32:31;;;;;;;5.07;4.35;;;20.50;30.10;;;;;;5033713;28;20037;-54
2023/01/20 01:34:57;;;;;;;4.90;4.20;;;20.50;30.00;;;;;;5034067;28;20025;-53
2023/01/20 01:37:23;;;;;;;5.30;4.30;;;20.50;30.00;;;;;;5034195;28;20111;-53
2023/01/20 01:39:48;;;;;;;5.50;4.22;;;20.50;30.10;;;;;;5034046;28;20026;-50
2023/01/20 01:42:18;;;;;;;5.45;4.15;;;20.50;30.10;;;;;;5031822;28;20444;-55
2023/01/20 01:45:11;;;;;;;5.25;3.75;;;20.50;30.10;;;;;;5034338;28;20037;-54
2023/01/20 01:47:45;;;;;;;4.20;3.63;;;20.40;30.00;;;;;;5034084;28;20037;-56
2023/01/20 01:50:16;;;;;;;4.70;3.70;;;20.40;30.00;;;;;;5032823;28;20049;-54
2023/01/20 01:52:45;;;;;;;4.43;3.60;;;20.40;30.00;;;;;;5031555;28;20045;-56
2023/01/20 01:55:14;;;;;;;3.58;3.13;;;20.40;30.00;;;;;;5032879;28;20033;-49
2023/01/20 01:57:40;;;;;;;4.07;3.35;;;20.40;30.10;;;;;;5033069;28;20029;-53
2023/01/20 02:00:07;;;;;;;4.28;3.30;;;20.40;30.10;;;;;;5033662;28;20029;-54
2023/01/20 02:02:40;;;;;;;3.83;3.42;;;20.40;30.10;;;;;;5030874;28;20105;-56
2023/01/20 02:05:06;;;;;;;4.15;3.50;;;20.30;30.00;;;;;;5033707;28;20108;-56
2023/01/20 02:07:33;;;;;;;5.03;3.25;;;20.40;30.10;;;;;;5033374;28;20021;-54
2023/01/20 02:10:00;;;;;;;3.45;3.15;;;20.40;30.10;;;;;;5031448;28;20037;-54
2023/01/20 02:12:27;;;;;;;4.00;3.42;;;20.40;30.10;;;;;;5031592;28;20353;-56
2023/01/20 02:14:56;;;;;;;4.03;3.35;;;20.30;30.00;;;;;;5033595;28;20382;-55
2023/01/20 02:17:52;;;;;;;4.47;3.35;;;20.40;30.10;;;;;;5033503;28;20029;-57
2023/01/20 02:20:38;;;;;;;5.72;3.17;;;20.30;30.10;;;;;;5031947;28;20056;-56
2023/01/20 02:23:15;;;;;;;4.40;3.58;;;20.30;30.10;;;;;;5032317;28;20033;-54
2023/01/20 02:26:11;;;;;;;4.15;3.47;;;20.30;30.10;;;;;;5032664;28;20033;-53
2023/01/20 02:29:12;;;;;;;4.00;3.45;;;20.30;30.10;;;;;;5031562;28;20037;-53
2023/01/20 02:31:47;;;;;;;3.83;3.25;;;20.30;30.10;;;;;;5029482;28;20071;-55
2023/01/20 02:34:28;;;;;;;4.93;3.72;;;20.30;30.10;;;;;;5032791;28;20025;-54
2023/01/20 02:37:04;;;;;;;4.38;3.00;;;20.30;30.10;;;;;;5032740;28;20053;-53
2023/01/20 02:39:46;;;;;;;4.70;3.60;;;20.20;30.10;;;;;;5029152;28;20042;-52
2023/01/20 02:42:28;;;;;;;4.68;3.45;;;20.20;30.10;;;;;;5032056;28;20033;-55
2023/01/20 02:45:15;;;;;;;4.15;3.75;;;20.20;30.20;;;;;;5032228;28;20043;-52
2023/01/20 02:48:05;;;;;;;4.43;3.22;;;20.20;30.20;;;;;;5032637;28;20357;-54
2023/01/20 02:50:40;;;;;;;4.10;3.40;;;20.20;30.20;;;;;;5031672;28;20052;-53
2023/01/20 02:53:07;;;;;;;3.30;3.00;;;20.20;30.20;;;;;;5032349;28;20045;-52
2023/01/20 02:55:44;;;;;;;4.05;3.00;;;20.20;30.90;;;;;;5032979;28;20056;-55
2023/01/20 02:58:17;;;;;;;3.63;2.83;;;20.20;30.20;;;;;;5032647;28;20037;-52
2023/01/20 03:01:00;;;;;;;4.10;3.53;;;20.20;30.20;;;;;;5031045;28;20112;-51
2023/01/20 03:03:32;;;;;;;4.15;3.08;;;20.20;30.30;;;;;;5032286;28;20021;-49
2023/01/20 03:06:02;;;;;;;3.88;3.38;;;20.20;30.30;;;;;;5035670;28;20029;-52
2023/01/20 03:08:31;;;;;;;4.10;3.25;;;20.20;30.20;;;;;;5023510;28;20029;-54
2023/01/20 03:11:04;;;;;;;4.50;3.65;;;20.10;30.20;;;;;;5035998;28;20108;-51
2023/01/20 03:13:58;;;;;;;4.90;3.75;;;20.20;30.20;;;;;;5036897;28;20040;-52
2023/01/20 03:16:26;;;;;;;4.43;3.42;;;20.10;30.20;;;;;;5036895;28;20042;-54
2023/01/20 03:18:54;;;;;;;4.70;3.83;;;20.10;30.20;;;;;;5036037;28;20091;-50
2023/01/20 03:21:20;;;;;;;3.97;3.30;;;20.10;30.20;;;;;;5025402;28;20112;-53
2023/01/20 03:23:53;;;;;;;3.88;3.38;;;20.10;30.20;;;;;;5036442;28;20033;-55
2023/01/20 03:26:21;;;;;;;4.32;3.60;;;20.10;30.20;;;;;;5036940;28;20022;-55
2023/01/20 03:28:48;;;;;;;5.22;3.50;;;20.10;30.20;;;;;;5037214;28;20112;-52
2023/01/20 03:31:28;;;;;;;4.20;3.72;;;20.10;30.30;;;;;;5036018;28;20047;-54
2023/01/20 03:33:59;;;;;;;4.07;3.47;;;20.10;30.20;;;;;;5027048;28;20108;-49
2023/01/20 03:36:28;;;;;;;5.38;3.80;;;20.10;30.30;;;;;;5027230;28;20029;-56
2023/01/20 03:38:55;;;;;;;4.53;4.07;;;20.10;30.30;;;;;;5035980;28;20088;-55
2023/01/20 03:41:49;;;;;;;5.03;4.10;;;20.10;30.30;;;;;;5035602;28;20052;-56
2023/01/20 03:44:59;;;;;;;5.10;4.18;;;20.10;30.30;;;;;;5034217;28;20040;-54
2023/01/20 03:47:31;;;;;;;4.88;4.10;;;20.10;30.30;;;;;;5035666;28;20048;-56
2023/01/20 03:50:16;;;;;;;5.03;3.97;;;20.00;30.30;;;;;;5036182;28;20036;-54
2023/01/20 03:53:11;;;;;;;5.30;4.30;;;20.00;30.30;;;;;;5034517;28;20053;-52
2023/01/20 03:56:06;;;;;;;5.23;3.97;;;20.00;30.30;;;;;;5036205;28;20076;-53
2023/01/20 03:58:36;;;;;;;6.18;4.80;;;20.00;30.30;;;;;;5024739;28;20354;-53
2023/01/20 04:01:08;;;;;;;6.68;5.05;;;20.00;30.30;;;;;;5021890;28;20100;-50
2023/01/20 04:03:38;;;;;;;5.72;4.90;;;20.00;30.30;;;;;;5034852;28;20053;-56
2023/01/20 04:06:07;;;;;;;5.95;5.15;;;20.00;30.30;;;;;;5035877;28;20121;-52
2023/01/20 04:08:43;;;;;;;6.00;4.80;;;20.00;30.40;;;;;;5036819;28;20033;-55
2023/01/20 04:11:09;;;;;;;6.25;5.53;;;20.00;30.40;;;;;;5033282;28;20057;-55
2023/01/20 04:13:35;;;;;;;7.00;5.72;;;19.90;30.40;;;;;;5035753;28;20031;-55
2023/01/20 04:16:02;;;;;;;6.40;5.55;;;19.90;30.30;;;;;;5035612;28;20112;-55
2023/01/20 04:18:28;;;;;;;7.13;5.35;;;19.90;30.30;;;;;;5036064;28;20330;-53
2023/01/20 04:21:00;;;;;;;7.20;5.90;;;19.90;30.30;;;;;;5035047;28;20060;-53
2023/01/20 04:23:28;;;;;;;7.70;5.88;;;19.90;30.30;;;;;;5034792;28;20029;-54
2023/01/20 04:25:54;;;;;;;9.43;6.13;;;19.90;30.30;;;;;;5035442;28;20037;-55
2023/01/20 04:28:20;;;;;;;7.88;5.97;;;19.90;30.30;;;;;;5034822;28;20056;-54
2023/01/20 04:30:47;;;;;;;8.85;6.70;;;19.90;30.30;;;;;;5023138;28;20099;-52
2023/01/20 04:33:12;;;;;;;7.85;6.22;;;19.90;30.40;;;;;;5035472;28;20017;-53
2023/01/20 04:35:38;;;;;;;8.80;7.03;;;19.90;30.30;;;;;;5035375;28;20073;-54
2023/01/20 04:38:05;;;;;;;9.15;6.82;;;19.90;30.30;;;;;;5034848;28;20025;-53
2023/01/20 04:40:31;;;;;;;7.50;6.25;;;19.90;30.40;;;;;;5034096;28;20037;-54
2023/01/20 04:42:57;;;;;;;7.70;6.05;;;19.90;30.30;;;;;;5034863;28;20025;-55
2023/01/20 04:45:23;;;;;;;8.88;6.38;;;19.90;30.40;;;;;;5034936;28;20072;-56
2023/01/20 04:47:48;;;;;;;8.02;6.38;;;19.80;30.30;;;;;;5035408;28;20025;-53
2023/01/20 04:50:15;;;;;;;8.30;6.30;;;19.90;30.40;;;;;;5034778;28;20035;-54
2023/01/20 04:52:42;;;;;;;8.45;6.60;;;19.80;30.40;;;;;;5033915;28;20087;-53
2023/01/20 04:55:08;;;;;;;8.73;6.45;;;19.80;30.40;;;;;;5033113;28;20026;-54
2023/01/20 04:57:34;;;;;;;7.28;5.55;;;19.80;30.40;;;;;;5035313;28;20035;-55
2023/01/20 05:00:00;;;;;;;8.57;6.45;;;19.80;30.40;;;;;;5034573;28;20033;-52
2023/01/20 05:02:26;;;;;;;8.60;6.38;;;19.80;30.40;;;;;;5034601;28;20087;-57
2023/01/20 05:04:51;;;;;;;8.25;6.57;;;19.80;31.00;;;;;;5034467;28;20039;-52
2023/01/20 05:07:17;;;;;;;8.40;6.28;;;19.80;30.40;;;;;;5032199;28;20095;-50
2023/01/20 05:09:43;;;;;;;7.30;5.88;;;19.80;30.40;;;;;;5033560;28;20033;-49
2023/01/20 05:12:09;;;;;;;7.80;6.80;;;19.80;30.40;;;;;;5034482;28;20464;-53
2023/01/20 05:14:34;;;;;;;8.93;6.47;;;19.80;30.40;;;;;;5034887;28;20472;-56
2023/01/20 05:17:00;;;;;;;8.32;6.22;;;19.70;30.40;;;;;;5026246;28;20086;-51
2023/01/20 05:19:26;;;;;;;7.45;5.93;;;19.70;30.40;;;;;;5031677;28;20060;-50
2023/01/20 05:21:52;;;;;;;7.82;6.35;;;19.80;30.40;;;;;;5033971;28;20123;-52
2023/01/20 05:24:18;;;;;;;8.82;6.63;;;19.80;30.40;;;;;;5032151;28;20065;-53
2023/01/20 05:26:43;;;;;;;9.85;7.47;;;19.70;30.40;;;;;;5034582;28;20033;-55
2023/01/20 05:29:09;;;;;;;8.23;6.32;;;19.70;30.40;;;;;;5033437;28;20114;-53
2023/01/20 05:31:37;;;;;;;8.57;6.00;;;19.70;30.40;;;;;;5033885;28;20476;-51
2023/01/20 05:34:03;;;;;;;8.80;6.32;;;19.70;30.40;;;;;;5034412;28;20163;-52
2023/01/20 05:36:29;;;;;;;8.70;5.97;;;19.70;30.40;;;;;;5033618;28;20033;-51
2023/01/20 05:38:55;;;;;;;7.10;5.65;;;19.70;30.50;;;;;;5015825;28;20029;-52
2023/01/20 05:41:21;;;;;;;8.43;6.25;;;19.70;30.40;;;;;;5034009;28;20021;-54
2023/01/20 05:43:47;;;;;;;7.82;5.72;;;19.70;30.40;;;;;;5034051;28;20061;-52
2023/01/20 05:46:14;;;;;;;7.53;5.97;;;19.70;30.40;;;;;;5033954;28;20021;-55
2023/01/20 05:48:40;;;;;;;7.05;5.32;;;19.70;30.40;;;;;;5033811;28;20038;-54
2023/01/20 05:51:06;;;;;;;7.60;5.72;;;19.60;30.40;;;;;;5030312;28;20044;-54
2023/01/20 05:53:32;;;;;;;8.48;6.07;;;19.60;30.40;;;;;;5031686;28;20025;-53
2023/01/20 05:56:03;;;;;;;6.97;5.35;;;19.70;30.40;;;;;;5033885;28;20021;-55
2023/01/20 05:58:29;;;;;;;7.88;5.90;;;19.60;30.40;;;;;;5033648;28;20041;-53
2023/01/20 06:01:07;;;;;;;7.40;5.25;;;19.60;30.40;;;;;;5032436;28;20076;-50
2023/01/20 06:03:33;;;;;;;7.53;5.65;;;19.60;30.40;;;;;;5033138;28;20069;-52
2023/01/20 06:06:01;;;;;;;7.28;5.90;;;19.60;30.40;;;;;;5033493;28;20070;-53
2023/01/20 06:08:27;;;;;;;7.18;5.60;;;19.60;30.40;;;;;;5032459;28;20105;-50
2023/01/20 06:10:53;;;;;;;7.47;5.60;;;19.60;30.40;;;;;;5032981;28;20113;-53
2023/01/20 06:13:18;;;;;;;7.25;5.55;;;19.60;30.40;;;;;;5023960;28;20104;-52
2023/01/20 06:15:49;;;;;;;8.15;5.68;;;19.60;30.40;;;;;;5032737;28;20504;-53
2023/01/20 06:18:15;;;;;;;6.97;5.18;;;19.60;30.50;;;;;;5032207;28;20022;-53
2023/01/20 06:20:41;;;;;;;6.47;5.10;;;19.50;30.40;;;;;;5033546;28;20445;-55
2023/01/20 06:23:06;;;;;;;7.85;5.68;;;19.60;30.40;;;;;;5033371;28;20029;-51
2023/01/20 06:25:32;;;;;;;6.47;5.13;;;19.60;30.40;;;;;;5032608;28;20026;-56
2023/01/20 06:27:59;;;;;;;5.85;5.20;;;19.60;30.40;;;;;;5033524;28;20048;-53
2023/01/20 06:30:25;;;;;;;7.15;5.32;;;19.60;30.40;;;;;;5030967;28;20029;-52
2023/01/20 06:32:53;;;;;;;7.53;4.68;;;19.60;30.40;;;;;;5032910;28;20575;-55
2023/01/20 06:35:19;;;;;;;7.45;5.65;;;19.50;30.40;;;;;;5032746;28;20114;-51
2023/01/20 06:37:45;;;;;;;7.28;5.65;;;19.50;30.40;;;;;;5033141;28;20026;-54
2023/01/20 06:40:13;;;;;;;6.63;5.30;;;19.50;30.40;;;;;;5032179;28;20030;-55
2023/01/20 06:42:39;;;;;;;6.10;4.95;;;19.50;30.40;;;;;;5033142;28;20038;-54
2023/01/20 06:45:05;;;;;;;8.07;5.55;;;19.50;30.40;;;;;;5024808;28;20047;-55
2023/01/20 06:47:31;;;;;;;7.03;5.40;;;19.50;30.40;;;;;;5031394;28;20357;-51
2023/01/20 06:49:57;;;;;;;6.28;5.10;;;19.50;30.50;;;;;;5032887;28;20021;-51
2023/01/20 06:52:23;;;;;;;7.60;5.18;;;19.40;30.40;;;;;;5032980;28;20035;-55
2023/01/20 06:54:49;;;;;;;8.50;5.78;;;19.50;30.40;;;;;;5033226;28;20033;-55
2023/01/20 06:57:15;;;;;;;6.97;5.70;;;19.50;30.50;;;;;;5032999;28;20456;-55
2023/01/20 06:59:40;;;;;;;6.65;4.80;;;19.40;30.40;;;;;;5031437;28;20033;-57
2023/01/20 07:02:10;;;;;;;6.53;5.07;;;19.50;30.50;;;;;;5032486;28;20045;-56
2023/01/20 07:04:36;;;;;;;7.55;6.03;;;19.50;30.50;;;;;;5031470;28;20030;-55
2023/01/20 07:07:02;;;;;;;7.20;5.57;;;19.50;30.50;;;;;;5032949;28;20350;-55
2023/01/20 07:09:28;;;;;;;7.43;5.50;;;19.40;30.40;;;;;;5032855;28;20401;-54
2023/01/20 07:11:54;;;;;;;6.32;5.18;;;19.40;30.40;;;;;;5032212;28;20030;-56
2023/01/20 07:14:20;;;;;;;7.05;6.03;;;19.50;30.50;;;;;;5033353;28;20090;-56
2023/01/20 07:16:46;;;;;;;8.38;5.75;;;19.40;30.50;;;;;;5032850;28;20041;-55
2023/01/20 07:19:12;;;;;;;7.63;5.78;;;19.40;30.50;;;;;;5029692;28;20038;-56
2023/01/20 07:21:38;;;;;;;8.15;5.80;;;19.40;30.50;;;;;;5031400;28;20349;-54
2023/01/20 07:24:04;;;;;;;7.30;5.60;;;19.40;30.60;;;;;;5023730;28;20700;-54
2023/01/20 07:26:30;;;;;;;7.05;5.57;;;19.40;30.60;;;;;;5031967;28;20033;-55
2023/01/20 07:29:03;;;;;;;8.30;6.00;;;19.40;30.60;;;;;;5032213;28;20445;-55
2023/01/20 07:31:33;;;;;;;6.60;5.07;;;19.40;30.50;;;;;;5031861;28;20436;-55
2023/01/20 07:33:59;;;;;;;9.07;5.70;;;19.40;30.50;;;;;;5032617;28;20040;-55
2023/01/20 07:36:25;;;;;;;7.45;5.72;;;19.40;30.60;;;;;;5021548;28;20029;-54
2023/01/20 07:38:52;;;;;;;7.57;5.93;;;19.30;30.60;;;;;;5029433;28;20036;-56
2023/01/20 07:41:19;;;;;;;6.80;5.50;;;19.30;30.50;;;;;;5032517;28;20026;-53
2023/01/20 07:43:47;;;;;;;7.97;5.50;;;19.30;30.60;;;;;;5032132;28;20108;-56
2023/01/20 07:46:13;;;;;;;7.38;5.55;;;19.30;30.60;;;;;;5032398;28;20088;-53
2023/01/20 07:48:40;;;;;;;7.93;6.13;;;19.30;30.60;;;;;;5032913;28;20061;-54
2023/01/20 07:51:09;;;;;;;8.13;6.18;;;19.30;30.60;;;;;;5033874;28;20445;-50
2023/01/20 07:53:39;;;;;;;8.07;5.60;;;19.30;30.60;;;;;;5036171;28;20483;-52
2023/01/20 07:56:08;;;;;;;9.10;5.50;;;19.30;30.60;;;;;;5024694;28;20030;-53
2023/01/20 07:58:35;;;;;;;7.78;5.55;;;19.30;30.70;;;;;;5058169;28;20039;-54
2023/01/20 08:01:18;;;;;;;7.90;5.00;;;19.40;30.80;;;;;;5021150;28;20025;-57
2023/01/20 08:03:44;;;;;;;6.35;4.78;;;19.30;31.00;;;;;;5032075;28;20120;-57
2023/01/20 08:06:12;;;;;;;6.65;4.60;;;19.30;31.10;;;;;;5033738;28;20033;-54
2023/01/20 08:08:38;;;;;;;7.68;4.18;;;19.30;31.30;;;;;;5027251;28;20121;-54
2023/01/20 08:11:05;;;;;;;5.72;4.13;;;19.40;31.40;;;;;;5034664;28;20126;-56
2023/01/20 08:13:31;;;;;;;5.65;4.03;;;19.40;31.70;;;;;;5034226;28;20033;-58
2023/01/20 08:16:02;;;;;;;4.93;3.60;;;19.40;31.90;;;;;;5033796;28;20048;-55
2023/01/20 08:18:29;;;;;;;5.10;3.60;;;19.40;32.00;;;;;;5035623;28;20036;-57
2023/01/20 08:20:54;;;;;;;7.53;4.00;;;19.50;32.20;;;;;;5035611;28;20046;-56
2023/01/20 08:23:20;;;;;;;7.50;3.88;;;19.60;32.30;;;;;;5035508;28;20051;-52
2023/01/20 08:25:46;;;;;;;5.35;3.92;;;19.70;32.30;;;;;;5029157;28;20087;-52
2023/01/20 08:28:12;;;;;;;5.15;3.75;;;19.70;32.30;;;;;;5031955;28;20040;-53
2023/01/20 08:30:38;;;;;;;4.75;3.42;;;19.80;32.20;;;;;;5036926;28;20036;-57
2023/01/20 08:33:04;;;;;;;4.70;3.63;;;19.80;32.10;;;;;;5026618;28;20041;-51
2023/01/20 08:35:30;;;;;;;5.07;3.70;;;19.90;32.10;;;;;;5028965;28;20029;-54
2023/01/20 08:37:56;;;;;;;4.93;3.60;;;20.00;32.00;;;;;;5028306;28;20029;-50
2023/01/20 08:40:22;;;;;;;5.85;3.83;;;20.10;32.00;;;;;;5031588;28;20333;-54
2023/01/20 08:42:47;;;;;;;4.30;3.47;;;20.10;31.90;;;;;;5030481;28;20041;-55
2023/01/20 08:45:13;;;;;;;5.93;3.83;;;20.20;32.00;;;;;;5032183;28;20090;-53
2023/01/20 08:47:43;;;;;;;5.65;3.70;;;20.30;31.90;;;;;;5036246;28;20120;-54
2023/01/20 08:50:10;;;;;;;6.32;3.72;;;20.30;31.80;;;;;;5025664;28;20112;-53
2023/01/20 08:52:36;;;;;;;4.75;3.90;;;20.30;31.80;;;;;;5029714;28;20465;-55
2023/01/20 08:55:02;;;;;;;7.80;3.92;;;20.50;31.80;;;;;;5026640;28;20109;-55
2023/01/20 08:57:28;;;;;;;5.88;3.90;;;20.50;31.60;;;;;;5034403;28;20061;-53
2023/01/20 08:59:54;;;;;;;11.40;4.60;;;20.50;31.50;;;;;;5035191;28;20061;-54
2023/01/20 09:02:22;;;;;;;6.10;4.10;;;20.60;31.50;;;;;;5033447;28;20429;-54
2023/01/20 09:04:49;;;;;;;5.82;4.53;;;20.70;31.30;;;;;;5034348;28;20103;-52
2023/01/20 09:07:15;;;;;;;6.50;4.07;;;20.70;31.20;;;;;;5034451;28;20022;-55
2023/01/20 09:09:41;;;;;;;5.30;4.43;;;20.80;31.00;;;;;;5034713;28;20120;-54
2023/01/20 09:12:10;;;;;;;6.63;4.45;;;20.80;30.90;;;;;;5034581;28;20196;-51
2023/01/20 09:14:36;;;;;;;5.75;4.35;;;20.90;30.80;;;;;;5034612;28;20022;-53
2023/01/20 09:17:02;;;;;;;8.40;4.60;;;21.00;30.70;;;;;;5034377;28;20059;-53
2023/01/20 09:19:29;;;;;;;5.78;4.32;;;21.00;30.60;;;;;;5034394;28;20041;-53
2023/01/20 09:21:55;;;;;;;5.53;4.28;;;21.00;30.50;;;;;;5034220;28;20033;-54
2023/01/20 09:24:21;;;;;;;6.22;4.68;;;21.10;30.40;;;;;;5042231;28;20033;-53
2023/01/20 09:26:49;;;;;;;6.13;4.78;;;21.10;30.30;;;;;;5033838;28;20040;-53
2023/01/20 09:29:17;;;;;;;6.68;4.95;;;21.20;30.20;;;;;;5033889;28;20048;-56
2023/01/20 09:31:47;;;;;;;6.63;4.70;;;21.20;30.10;;;;;;5032773;28;20049;-54
2023/01/20 09:34:20;;;;;;;6.95;4.60;;;21.30;30.10;;;;;;5019861;28;20033;-53
2023/01/20 09:36:56;;;;;;;6.03;4.63;;;21.30;30.00;;;;;;5034376;28;20037;-54
2023/01/20 09:45:50;;;;;;;7.07;4.72;;;21.40;29.90;;;;;;5030925;28;20248;-57
2023/01/20 09:54:37;;;;;;;7.70;4.57;;;21.50;29.80;;;;;;5032183;28;20025;-55
2023/01/20 09:57:07;;;;;;;6.22;4.38;;;21.60;29.80;;;;;;5041076;28;20060;-54
2023/01/20 09:59:47;;;;;;;6.25;4.70;;;21.60;29.70;;;;;;5032900;28;20037;-56
2023/01/20 10:02:27;;;;;;;5.70;4.25;;;21.60;29.70;;;;;;5032231;28;20021;-52
2023/01/20 10:05:09;;;;;;;5.78;4.20;;;21.60;29.60;;;;;;5031773;28;20036;-54
2023/01/20 10:07:38;;;;;;;5.07;4.00;;;21.70;29.60;;;;;;5034028;28;20041;-55
2023/01/20 10:10:15;;;;;;;5.53;4.55;;;21.70;29.60;;;;;;5033363;28;20445;-54
2023/01/20 10:12:55;;;;;;;5.03;4.07;;;21.70;29.50;;;;;;5031828;28;20056;-54
2023/01/20 10:15:26;;;;;;;6.13;4.38;;;21.70;29.50;;;;;;5030738;28;20128;-53
2023/01/20 10:18:15;;;;;;;4.25;3.75;;;21.70;29.50;;;;;;5033340;28;20528;-55
2023/01/20 10:20:49;;;;;;;5.95;3.88;;;21.80;29.50;;;;;;5030858;28;20132;-54
2023/01/20 10:23:31;;;;;;;6.78;4.47;;;21.80;29.50;;;;;;5032106;28;20041;-54
2023/01/20 10:25:57;;;;;;;5.88;4.30;;;21.80;29.40;;;;;;5032299;28;20392;-54
2023/01/20 10:28:27;;;;;;;6.88;3.90;;;21.80;29.40;;;;;;5032411;28;20029;-55
2023/01/20 10:30:57;;;;;;;5.32;4.32;;;21.80;29.40;;;;;;5031075;28;20034;-51
2023/01/20 10:33:32;;;;;;;5.63;4.45;;;21.80;29.40;;;;;;5019784;28;20055;-57
2023/01/20 10:35:59;;;;;;;6.18;4.50;;;21.80;29.40;;;;;;5032815;28;20034;-55
2023/01/20 10:38:37;;;;;;;6.20;4.65;;;21.80;29.40;;;;;;5032361;28;20033;-54
2023/01/20 10:41:26;;;;;;;5.15;4.35;;;21.80;29.30;;;;;;5032341;28;20029;-53
2023/01/20 10:43:52;;;;;;;6.15;4.70;;;21.80;29.30;;;;;;5032183;28;20033;-55
2023/01/20 10:46:30;;;;;;;5.40;4.05;;;21.80;29.30;;;;;;5026334;28;20029;-56
2023/01/20 10:49:20;;;;;;;4.90;4.10;;;21.80;29.40;;;;;;5029767;28;20099;-54
2023/01/20 10:52:09;;;;;;;5.93;4.15;;;21.80;29.40;;;;;;5025529;28;20045;-54
2023/01/20 10:55:13;;;;;;;3.85;3.38;;;21.80;29.40;;;;;;5021757;28;20029;-56
2023/01/20 10:57:39;;;;;;;3.80;3.28;;;21.80;29.50;;;;;;5033377;28;20461;-54
2023/01/20 11:00:29;;;;;;;4.93;3.50;;;21.70;29.60;;;;;;5032860;28;20032;-54
2023/01/20 11:03:00;;;;;;;4.65;3.38;;;21.70;29.60;;;;;;5030968;28;20026;-54
2023/01/20 11:05:36;;;;;;;4.35;3.30;;;21.70;29.70;;;;;;5032250;28;20022;-53
2023/01/20 11:08:13;;;;;;;4.47;3.40;;;21.70;30.20;;;;;;5028570;28;20361;-55
2023/01/20 11:10:40;;;;;;;4.00;3.35;;;21.70;29.80;;;;;;5029112;28;20040;-55
2023/01/20 11:13:09;;;;;;;5.07;3.38;;;21.70;29.90;;;;;;5031534;28;20072;-47
2023/01/20 11:15:42;;;;;;;4.80;3.47;;;21.70;29.90;;;;;;5022414;28;20465;-52
2023/01/20 11:18:14;;;;;;;3.90;3.00;;;21.70;29.90;;;;;;5032105;28;20030;-53
2023/01/20 11:21:05;;;;;;;5.85;3.97;;;21.70;29.90;;;;;;4989256;28;1197389;-53
2023/01/20 11:23:37;;;;;;;7.28;3.17;;;21.70;29.90;;;;;;5018629;28;20099;-57
2023/01/20 11:26:10;;;;;;;4.88;3.10;;;21.60;29.90;;;;;;5034033;28;20029;-54
2023/01/20 11:28:58;;;;;;;6.80;3.13;;;21.60;29.90;;;;;;5036302;28;20457;-53
2023/01/20 11:31:46;;;;;;;3.88;2.97;;;21.60;29.90;;;;;;5035102;28;20040;-53
2023/01/20 11:34:34;;;;;;;3.95;3.15;;;21.60;29.90;;;;;;5034425;28;20171;-55
2023/01/20 11:37:09;;;;;;;4.47;3.00;;;21.60;29.90;;;;;;5035733;28;20449;-54
2023/01/20 11:39:35;;;;;;;3.17;2.67;;;21.60;29.90;;;;;;5031484;28;20068;-52
2023/01/20 11:42:19;;;;;;;3.80;2.90;;;21.60;29.90;;;;;;5036414;28;20116;-53
2023/01/20 11:44:53;;;;;;;3.20;2.88;;;21.60;29.90;;;;;;5035854;28;20364;-53
2023/01/20 11:47:35;;;;;;;;;;;21.60;29.90;;;;;;5033167;28;20053;-55
2023/01/20 11:50:07;;;;;;;4.20;2.85;;;21.60;29.90;;;;;;5036919;28;19927;-49
2023/01/20 11:52:42;;;;;;;4.07;2.67;;;21.50;30.30;;;;;;5034024;28;20083;-55
2023/01/20 11:55:30;;;;;;;3.53;2.65;;;21.50;29.80;;;;;;5034862;28;20409;-56
2023/01/20 11:57:59;;;;;;;2.92;2.42;;;21.50;29.80;;;;;;5032852;28;20053;-51
2023/01/20 12:00:26;;;;;;;3.33;2.53;;;21.50;29.90;;;;;;5035191;28;20071;-56
2023/01/20 12:03:12;;;;;;;3.17;2.65;;;21.50;30.00;;;;;;5030774;28;20032;-55
2023/01/20 12:06:15;;;;;;;3.20;2.35;;;21.50;30.00;;;;;;5035189;28;20042;-55
2023/01/20 12:08:49;;;;;;;4.82;2.28;;;21.50;30.00;;;;;;5034283;28;20087;-53
2023/01/20 12:11:29;;;;;;;2.60;1.80;;;21.50;30.00;;;;;;5033463;28;20039;-52
2023/01/20 12:14:27;;;;;;;2.60;2.20;;;21.50;30.00;;;;;;5034924;28;20119;-56
2023/01/20 12:17:01;;;;;;;2.72;2.20;;;21.50;30.10;;;;;;5032524;28;20510;-54
2023/01/20 12:20:05;;;;;;;2.38;1.90;;;21.50;30.10;;;;;;5033589;28;20452;-56
2023/01/20 12:22:40;;;;;;;3.22;2.00;;;21.50;30.10;;;;;;5030602;28;20092;-54
2023/01/20 12:25:21;;;;;;;2.75;1.85;;;21.50;30.10;;;;;;5033077;28;20068;-54
2023/01/20 12:27:51;;;;;;;3.33;2.33;;;21.50;30.10;;;;;;5033809;28;20041;-52
2023/01/20 12:30:40;;;;;;;3.05;1.95;;;21.50;30.20;;;;;;5030921;28;20086;-51
2023/01/20 12:33:31;;;;;;;6.32;2.00;;;21.50;30.30;;;;;;5034089;28;20049;-56
2023/01/20 12:36:08;;;;;;;6.15;2.03;;;21.50;30.50;;;;;;5033316;28;20026;-59
2023/01/20 12:39:03;;;;;;;2.03;1.60;;;21.50;30.60;;;;;;5032873;28;20033;-55
2023/01/20 12:41:55;;;;;;;2.33;1.80;;;21.50;30.60;;;;;;5029831;28;20105;-50
2023/01/20 12:44:33;;;;;;;2.17;1.58;;;21.50;30.70;;;;;;5016967;28;20030;-47
2023/01/20 12:47:07;;;;;;;2.20;1.90;;;21.50;30.70;;;;;;5017842;28;20350;-50
2023/01/20 12:50:02;;;;;;;2.50;1.60;;;21.50;30.70;;;;;;5016952;28;20034;-52
2023/01/20 12:52:47;;;;;;;2.28;1.58;;;21.50;30.70;;;;;;4995762;28;20453;-54
2023/01/20 12:55:37;;;;;;;1.92;1.70;;;21.50;30.60;;;;;;5018432;28;20037;-55
2023/01/20 12:58:11;;;;;;;2.00;1.50;;;21.50;30.70;;;;;;5035058;28;20116;-56
2023/01/20 13:01:05;;;;;;;2.42;1.52;;;21.50;30.70;;;;;;5031322;28;20042;-55
2023/01/20 13:04:02;;;;;;;2.22;1.60;;;21.50;30.80;;;;;;4997607;28;20060;-50
2023/01/20 13:06:48;;;;;;;2.38;1.73;;;21.50;30.70;;;;;;5038567;28;20024;-53
2023/01/20 13:09:21;;;;;;;2.15;1.58;;;21.50;30.70;;;;;;5028490;28;20026;-55
2023/01/20 13:12:05;;;;;;;4.40;1.77;;;21.40;30.70;;;;;;5039083;28;20424;-54
2023/01/20 13:14:49;;;;;;;2.30;1.50;;;21.50;30.70;;;;;;5016190;28;20057;-55
2023/01/20 13:17:24;;;;;;;3.10;1.60;;;21.40;30.60;;;;;;5016744;28;20026;-52
2023/01/20 13:19:56;;;;;;;1.83;1.33;;;21.40;30.60;;;;;;5016672;28;20052;-54
2023/01/20 13:22:23;;;;;;;2.60;1.45;;;21.40;30.60;;;;;;5023980;28;20043;-52
2023/01/20 13:24:52;;;;;;;1.85;1.40;;;21.50;30.70;;;;;;5034328;28;20449;-53